sensor_id;sensor_type;location;lat;lon;timestamp;temperature;humidity
75164;HTU21D;63746;45.402;37.922;2023-02-24T00:01:26;-1.48;72.13
75164;HTU21D;63746;45.402;37.922;2023-02-24T00:04:03;-1.48;72.09
75164;HTU21D;63746;45.402;37.922;2023-02-24T00:06:33;-1.50;72.10
75164;HTU21D;63746;45.402;37.922;2023-02-24T00:11:41;-1.50;72.13
75164;HTU21D;63746;45.402;37.922;2023-02-24T00:14:11;-1.50;72.22
75164;HTU21D;63746;45.402;37.922;2023-02-24T00:16:41;-1.49;72.29
75164;HTU21D;63746;45.402;37.922;2023-02-24T00:19:11;-1.48;72.25
75164;HTU21D;63746;45.402;37.922;2023-02-24T00:21:38;-1.48;72.28
75164;HTU21D;63746;45.402;37.922;2023-02-24T00:24:05;-1.46;72.32
75164;HTU21D;63746;45.402;37.922;2023-02-24T00:26:31;-1.44;72.33
75164;HTU21D;63746;45.402;37.922;2023-02-24T00:28:58;-1.43;72.34
75164;HTU21D;63746;45.402;37.922;2023-02-24T00:31:26;-1.42;72.35
75164;HTU21D;63746;45.402;37.922;2023-02-24T00:33:57;-1.39;72.34
75164;HTU21D;63746;45.402;37.922;2023-02-24T00:36:23;-1.38;72.29
75164;HTU21D;63746;45.402;37.922;2023-02-24T00:38:52;-1.36;72.31
75164;HTU21D;63746;45.402;37.922;2023-02-24T00:41:23;-1.36;72.25
75164;HTU21D;63746;45.402;37.922;2023-02-24T00:43:50;-1.38;72.07
75164;HTU21D;63746;45.402;37.922;2023-02-24T00:46:18;-1.39;72.04
75164;HTU21D;63746;45.402;37.922;2023-02-24T00:48:47;-1.39;72.13
75164;HTU21D;63746;45.402;37.922;2023-02-24T00:51:18;-1.39;72.22
75164;HTU21D;63746;45.402;37.922;2023-02-24T00:53:52;-1.36;72.28
75164;HTU21D;63746;45.402;37.922;2023-02-24T00:56:27;-1.35;72.30
75164;HTU21D;63746;45.402;37.922;2023-02-24T00:58:54;-1.35;72.25
75164;HTU21D;63746;45.402;37.922;2023-02-24T01:01:22;-1.35;72.20
75164;HTU21D;63746;45.402;37.922;2023-02-24T01:03:49;-1.35;72.16
75164;HTU21D;63746;45.402;37.922;2023-02-24T01:06:18;-1.35;72.14
75164;HTU21D;63746;45.402;37.922;2023-02-24T01:08:49;-1.38;72.08
75164;HTU21D;63746;45.402;37.922;2023-02-24T01:11:20;-1.38;72.16
75164;HTU21D;63746;45.402;37.922;2023-02-24T01:14:08;-1.38;72.11
75164;HTU21D;63746;45.402;37.922;2023-02-24T01:16:35;-1.41;72.08
75164;HTU21D;63746;45.402;37.922;2023-02-24T01:19:02;-1.41;72.14
75164;HTU21D;63746;45.402;37.922;2023-02-24T01:21:30;-1.40;72.19
75164;HTU21D;63746;45.402;37.922;2023-02-24T01:23:56;-1.40;72.25
75164;HTU21D;63746;45.402;37.922;2023-02-24T01:26:22;-1.39;72.16
75164;HTU21D;63746;45.402;37.922;2023-02-24T01:28:51;-1.40;72.10
75164;HTU21D;63746;45.402;37.922;2023-02-24T01:31:19;-1.43;72.00
75164;HTU21D;63746;45.402;37.922;2023-02-24T01:33:46;-1.45;72.05
75164;HTU21D;63746;45.402;37.922;2023-02-24T01:38:40;-1.49;72.03
75164;HTU21D;63746;45.402;37.922;2023-02-24T01:41:15;-1.48;72.08
75164;HTU21D;63746;45.402;37.922;2023-02-24T01:46:28;-1.57;71.80
75164;HTU21D;63746;45.402;37.922;2023-02-24T01:48:59;-1.61;71.75
75164;HTU21D;63746;45.402;37.922;2023-02-24T01:51:31;-1.64;71.86
75164;HTU21D;63746;45.402;37.922;2023-02-24T01:53:59;-1.65;72.02
75164;HTU21D;63746;45.402;37.922;2023-02-24T01:56:28;-1.64;72.10
75164;HTU21D;63746;45.402;37.922;2023-02-24T01:58:57;-1.63;72.19
75164;HTU21D;63746;45.402;37.922;2023-02-24T02:01:24;-1.62;72.19
75164;HTU21D;63746;45.402;37.922;2023-02-24T02:03:52;-1.62;72.16
75164;HTU21D;63746;45.402;37.922;2023-02-24T02:06:19;-1.62;72.16
75164;HTU21D;63746;45.402;37.922;2023-02-24T02:08:45;-1.63;72.15
75164;HTU21D;63746;45.402;37.922;2023-02-24T02:11:14;-1.64;72.20
75164;HTU21D;63746;45.402;37.922;2023-02-24T02:13:45;-1.64;72.22
75164;HTU21D;63746;45.402;37.922;2023-02-24T02:19:22;-1.63;72.28
75164;HTU21D;63746;45.402;37.922;2023-02-24T02:25:17;-1.68;71.99
75164;HTU21D;63746;45.402;37.922;2023-02-24T02:38:48;-1.78;72.22
75164;HTU21D;63746;45.402;37.922;2023-02-24T02:44:36;-1.79;72.11
75164;HTU21D;63746;45.402;37.922;2023-02-24T02:47:24;-1.82;72.08
75164;HTU21D;63746;45.402;37.922;2023-02-24T02:49:57;-1.83;72.19
75164;HTU21D;63746;45.402;37.922;2023-02-24T02:52:34;-1.83;72.32
75164;HTU21D;63746;45.402;37.922;2023-02-24T02:55:08;-1.83;72.33
75164;HTU21D;63746;45.402;37.922;2023-02-24T02:57:37;-1.84;72.32
75164;HTU21D;63746;45.402;37.922;2023-02-24T03:00:18;-1.80;72.38
75164;HTU21D;63746;45.402;37.922;2023-02-24T03:02:50;-1.82;72.27
75164;HTU21D;63746;45.402;37.922;2023-02-24T03:05:21;-1.84;72.22
75164;HTU21D;63746;45.402;37.922;2023-02-24T03:07:58;-1.85;72.17
75164;HTU21D;63746;45.402;37.922;2023-02-24T03:10:27;-1.88;72.13
75164;HTU21D;63746;45.402;37.922;2023-02-24T03:12:57;-1.90;72.13
75164;HTU21D;63746;45.402;37.922;2023-02-24T03:15:26;-1.92;72.08
75164;HTU21D;63746;45.402;37.922;2023-02-24T03:18:06;-1.94;72.13
75164;HTU21D;63746;45.402;37.922;2023-02-24T03:20:40;-1.99;72.02
75164;HTU21D;63746;45.402;37.922;2023-02-24T03:23:18;-2.02;72.00
75164;HTU21D;63746;45.402;37.922;2023-02-24T03:25:54;-2.05;72.09
75164;HTU21D;63746;45.402;37.922;2023-02-24T03:28:38;-2.07;72.19
75164;HTU21D;63746;45.402;37.922;2023-02-24T03:31:09;-2.08;72.19
75164;HTU21D;63746;45.402;37.922;2023-02-24T03:33:40;-2.12;72.20
75164;HTU21D;63746;45.402;37.922;2023-02-24T03:36:10;-2.13;72.21
75164;HTU21D;63746;45.402;37.922;2023-02-24T03:38:41;-2.13;72.34
75164;HTU21D;63746;45.402;37.922;2023-02-24T03:41:09;-2.12;72.37
75164;HTU21D;63746;45.402;37.922;2023-02-24T03:43:45;-2.12;72.46
75164;HTU21D;63746;45.402;37.922;2023-02-24T03:46:15;-2.09;72.55
75164;HTU21D;63746;45.402;37.922;2023-02-24T03:48:47;-2.10;72.40
75164;HTU21D;63746;45.402;37.922;2023-02-24T03:51:17;-2.12;72.41
75164;HTU21D;63746;45.402;37.922;2023-02-24T03:59:41;-2.17;72.38
75164;HTU21D;63746;45.402;37.922;2023-02-24T04:02:19;-2.18;72.46
75164;HTU21D;63746;45.402;37.922;2023-02-24T04:05:10;-2.19;72.33
75164;HTU21D;63746;45.402;37.922;2023-02-24T04:08:00;-2.23;72.32
75164;HTU21D;63746;45.402;37.922;2023-02-24T04:16:09;-2.27;72.59
75164;HTU21D;63746;45.402;37.922;2023-02-24T04:18:37;-2.27;72.60
75164;HTU21D;63746;45.402;37.922;2023-02-24T04:21:05;-2.24;72.74
75164;HTU21D;63746;45.402;37.922;2023-02-24T04:23:42;-2.23;72.74
75164;HTU21D;63746;45.402;37.922;2023-02-24T04:26:11;-2.21;72.83
75164;HTU21D;63746;45.402;37.922;2023-02-24T04:28:39;-2.19;72.88
75164;HTU21D;63746;45.402;37.922;2023-02-24T04:31:10;-2.18;72.85
75164;HTU21D;63746;45.402;37.922;2023-02-24T04:33:45;-2.17;72.78
75164;HTU21D;63746;45.402;37.922;2023-02-24T04:36:29;-2.13;72.89
75164;HTU21D;63746;45.402;37.922;2023-02-24T04:38:55;-2.10;72.84
75164;HTU21D;63746;45.402;37.922;2023-02-24T04:41:21;-2.14;72.59
75164;HTU21D;63746;45.402;37.922;2023-02-24T04:43:50;-2.14;72.70
75164;HTU21D;63746;45.402;37.922;2023-02-24T04:46:17;-2.10;72.75
75164;HTU21D;63746;45.402;37.922;2023-02-24T04:48:43;-2.10;72.83
75164;HTU21D;63746;45.402;37.922;2023-02-24T04:51:10;-2.07;72.80
75164;HTU21D;63746;45.402;37.922;2023-02-24T04:53:36;-2.07;72.78
75164;HTU21D;63746;45.402;37.922;2023-02-24T04:56:04;-2.05;72.81
75164;HTU21D;63746;45.402;37.922;2023-02-24T04:58:38;-2.06;72.64
75164;HTU21D;63746;45.402;37.922;2023-02-24T05:01:08;-2.08;72.62
75164;HTU21D;63746;45.402;37.922;2023-02-24T05:03:36;-2.08;72.67
75164;HTU21D;63746;45.402;37.922;2023-02-24T05:06:02;-2.07;72.68
75164;HTU21D;63746;45.402;37.922;2023-02-24T05:08:31;-2.05;72.80
75164;HTU21D;63746;45.402;37.922;2023-02-24T05:10:57;-2.02;72.90
75164;HTU21D;63746;45.402;37.922;2023-02-24T05:13:27;-2.00;72.91
75164;HTU21D;63746;45.402;37.922;2023-02-24T05:15:56;-1.97;72.86
75164;HTU21D;63746;45.402;37.922;2023-02-24T05:18:22;-1.98;72.79
75164;HTU21D;63746;45.402;37.922;2023-02-24T05:20:53;-1.95;72.89
75164;HTU21D;63746;45.402;37.922;2023-02-24T05:23:44;-1.93;72.92
75164;HTU21D;63746;45.402;37.922;2023-02-24T05:26:16;-1.93;72.87
75164;HTU21D;63746;45.402;37.922;2023-02-24T05:28:45;-1.95;72.87
75164;HTU21D;63746;45.402;37.922;2023-02-24T05:31:20;-1.97;72.67
75164;HTU21D;63746;45.402;37.922;2023-02-24T05:33:52;-1.98;72.58
75164;HTU21D;63746;45.402;37.922;2023-02-24T05:36:23;-2.00;72.64
75164;HTU21D;63746;45.402;37.922;2023-02-24T05:38:51;-2.01;72.71
75164;HTU21D;63746;45.402;37.922;2023-02-24T05:41:24;-2.01;72.55
75164;HTU21D;63746;45.402;37.922;2023-02-24T05:44:03;-2.03;72.29
75164;HTU21D;63746;45.402;37.922;2023-02-24T05:46:39;-2.05;72.64
75164;HTU21D;63746;45.402;37.922;2023-02-24T05:49:27;-2.04;72.93
75164;HTU21D;63746;45.402;37.922;2023-02-24T05:51:59;-1.99;73.06
75164;HTU21D;63746;45.402;37.922;2023-02-24T05:54:31;-1.95;72.87
75164;HTU21D;63746;45.402;37.922;2023-02-24T05:57:05;-1.98;72.79
75164;HTU21D;63746;45.402;37.922;2023-02-24T05:59:33;-1.98;72.80
75164;HTU21D;63746;45.402;37.922;2023-02-24T06:02:10;-1.95;72.78
75164;HTU21D;63746;45.402;37.922;2023-02-24T06:04:39;-1.95;72.82
75164;HTU21D;63746;45.402;37.922;2023-02-24T06:07:24;-1.94;73.03
75164;HTU21D;63746;45.402;37.922;2023-02-24T06:09:52;-1.91;72.98
75164;HTU21D;63746;45.402;37.922;2023-02-24T06:12:22;-1.89;72.98
75164;HTU21D;63746;45.402;37.922;2023-02-24T06:14:48;-1.88;72.95
75164;HTU21D;63746;45.402;37.922;2023-02-24T06:17:15;-1.86;73.09
75164;HTU21D;63746;45.402;37.922;2023-02-24T06:19:43;-1.82;73.06
75164;HTU21D;63746;45.402;37.922;2023-02-24T06:22:15;-1.75;73.38
75164;HTU21D;63746;45.402;37.922;2023-02-24T06:24:44;-1.67;73.65
75164;HTU21D;63746;45.402;37.922;2023-02-24T06:27:11;-1.56;73.82
75164;HTU21D;63746;45.402;37.922;2023-02-24T06:29:43;-1.50;73.51
75164;HTU21D;63746;45.402;37.922;2023-02-24T06:32:09;-1.47;73.12
75164;HTU21D;63746;45.402;37.922;2023-02-24T06:34:37;-1.46;72.98
75164;HTU21D;63746;45.402;37.922;2023-02-24T06:37:04;-1.45;73.15
75164;HTU21D;63746;45.402;37.922;2023-02-24T06:39:32;-1.40;73.32
75164;HTU21D;63746;45.402;37.922;2023-02-24T06:42:00;-1.38;73.12
75164;HTU21D;63746;45.402;37.922;2023-02-24T06:44:34;-1.35;73.08
75164;HTU21D;63746;45.402;37.922;2023-02-24T06:47:01;-1.29;73.32
75164;HTU21D;63746;45.402;37.922;2023-02-24T06:49:28;-1.23;73.28
75164;HTU21D;63746;45.402;37.922;2023-02-24T06:51:55;-1.15;73.43
75164;HTU21D;63746;45.402;37.922;2023-02-24T06:54:23;-1.02;73.83
75164;HTU21D;63746;45.402;37.922;2023-02-24T06:56:58;-0.94;73.59
75164;HTU21D;63746;45.402;37.922;2023-02-24T06:59:25;-0.88;73.54
75164;HTU21D;63746;45.402;37.922;2023-02-24T07:01:58;-0.77;73.70
75164;HTU21D;63746;45.402;37.922;2023-02-24T07:04:26;-0.71;73.63
75164;HTU21D;63746;45.402;37.922;2023-02-24T07:06:56;-0.60;73.64
75164;HTU21D;63746;45.402;37.922;2023-02-24T07:09:24;-0.54;73.49
75164;HTU21D;63746;45.402;37.922;2023-02-24T07:11:52;-0.47;73.64
75164;HTU21D;63746;45.402;37.922;2023-02-24T07:14:23;-0.42;73.25
75164;HTU21D;63746;45.402;37.922;2023-02-24T07:16:49;-0.42;73.03
75164;HTU21D;63746;45.402;37.922;2023-02-24T07:19:23;-0.40;72.67
75164;HTU21D;63746;45.402;37.922;2023-02-24T07:21:53;-0.37;72.65
75164;HTU21D;63746;45.402;37.922;2023-02-24T07:24:25;-0.34;72.90
75164;HTU21D;63746;45.402;37.922;2023-02-24T07:27:10;-0.31;73.09
75164;HTU21D;63746;45.402;37.922;2023-02-24T07:29:37;-0.27;72.21
75164;HTU21D;63746;45.402;37.922;2023-02-24T07:32:05;-0.27;72.33
75164;HTU21D;63746;45.402;37.922;2023-02-24T07:34:33;-0.23;72.74
75164;HTU21D;63746;45.402;37.922;2023-02-24T07:37:00;-0.24;72.25
75164;HTU21D;63746;45.402;37.922;2023-02-24T07:39:33;-0.24;71.61
75164;HTU21D;63746;45.402;37.922;2023-02-24T07:41:59;-0.23;71.58
75164;HTU21D;63746;45.402;37.922;2023-02-24T07:44:25;-0.21;72.00
75164;HTU21D;63746;45.402;37.922;2023-02-24T07:46:51;-0.12;72.33
75164;HTU21D;63746;45.402;37.922;2023-02-24T07:49:20;-0.02;72.54
75164;HTU21D;63746;45.402;37.922;2023-02-24T07:51:49;0.02;72.74
75164;HTU21D;63746;45.402;37.922;2023-02-24T07:54:20;0.10;72.96
75164;HTU21D;63746;45.402;37.922;2023-02-24T07:56:46;0.23;73.06
75164;HTU21D;63746;45.402;37.922;2023-02-24T07:59:28;0.37;72.93
75164;HTU21D;63746;45.402;37.922;2023-02-24T08:01:55;0.47;72.61
75164;HTU21D;63746;45.402;37.922;2023-02-24T08:04:24;0.53;72.39
75164;HTU21D;63746;45.402;37.922;2023-02-24T08:06:51;0.64;72.22
75164;HTU21D;63746;45.402;37.922;2023-02-24T08:09:27;0.72;72.95
75164;HTU21D;63746;45.402;37.922;2023-02-24T08:12:12;0.79;72.29
75164;HTU21D;63746;45.402;37.922;2023-02-24T08:14:46;0.89;72.30
75164;HTU21D;63746;45.402;37.922;2023-02-24T08:17:24;0.99;72.99
75164;HTU21D;63746;45.402;37.922;2023-02-24T08:19:53;1.12;72.67
75164;HTU21D;63746;45.402;37.922;2023-02-24T08:22:41;1.20;72.58
75164;HTU21D;63746;45.402;37.922;2023-02-24T08:25:09;1.24;71.87
75164;HTU21D;63746;45.402;37.922;2023-02-24T08:27:36;1.33;72.03
75164;HTU21D;63746;45.402;37.922;2023-02-24T08:30:07;1.46;72.30
75164;HTU21D;63746;45.402;37.922;2023-02-24T08:35:12;1.61;72.54
75164;HTU21D;63746;45.402;37.922;2023-02-24T08:37:50;1.76;72.74
75164;HTU21D;63746;45.402;37.922;2023-02-24T08:40:25;1.93;72.46
75164;HTU21D;63746;45.402;37.922;2023-02-24T08:43:00;1.98;72.29
75164;HTU21D;63746;45.402;37.922;2023-02-24T08:46:01;2.08;72.45
75164;HTU21D;63746;45.402;37.922;2023-02-24T08:48:43;2.15;72.61
75164;HTU21D;63746;45.402;37.922;2023-02-24T08:51:18;2.22;72.45
75164;HTU21D;63746;45.402;37.922;2023-02-24T08:53:51;2.20;71.96
75164;HTU21D;63746;45.402;37.922;2023-02-24T08:56:23;2.16;72.01
75164;HTU21D;63746;45.402;37.922;2023-02-24T08:58:54;2.19;72.13
75164;HTU21D;63746;45.402;37.922;2023-02-24T09:01:32;2.28;72.35
75164;HTU21D;63746;45.402;37.922;2023-02-24T09:04:10;2.40;72.42
75164;HTU21D;63746;45.402;37.922;2023-02-24T09:06:45;2.56;72.58
75164;HTU21D;63746;45.402;37.922;2023-02-24T09:09:17;2.68;72.68
75164;HTU21D;63746;45.402;37.922;2023-02-24T09:11:51;2.78;72.46
75164;HTU21D;63746;45.402;37.922;2023-02-24T09:14:23;2.79;72.34
75164;HTU21D;63746;45.402;37.922;2023-02-24T09:16:50;2.86;72.54
75164;HTU21D;63746;45.402;37.922;2023-02-24T09:19:44;2.97;72.40
75164;HTU21D;63746;45.402;37.922;2023-02-24T09:22:19;3.06;72.31
75164;HTU21D;63746;45.402;37.922;2023-02-24T09:24:55;3.14;72.61
75164;HTU21D;63746;45.402;37.922;2023-02-24T09:27:39;3.26;72.55
75164;HTU21D;63746;45.402;37.922;2023-02-24T09:30:10;3.38;72.77
75164;HTU21D;63746;45.402;37.922;2023-02-24T09:32:56;3.57;72.83
75164;HTU21D;63746;45.402;37.922;2023-02-24T09:35:26;3.67;72.54
75164;HTU21D;63746;45.402;37.922;2023-02-24T09:37:57;3.74;72.19
75164;HTU21D;63746;45.402;37.922;2023-02-24T09:40:25;3.80;70.93
75164;HTU21D;63746;45.402;37.922;2023-02-24T09:43:19;3.83;71.61
75164;HTU21D;63746;45.402;37.922;2023-02-24T09:46:03;3.86;71.73
75164;HTU21D;63746;45.402;37.922;2023-02-24T09:49:04;3.94;71.82
75164;HTU21D;63746;45.402;37.922;2023-02-24T09:51:32;4.03;72.17
75164;HTU21D;63746;45.402;37.922;2023-02-24T09:54:15;4.08;72.03
75164;HTU21D;63746;45.402;37.922;2023-02-24T09:56:52;4.20;71.76
75164;HTU21D;63746;45.402;37.922;2023-02-24T09:59:46;4.27;72.08
75164;HTU21D;63746;45.402;37.922;2023-02-24T10:02:46;4.36;71.88
75164;HTU21D;63746;45.402;37.922;2023-02-24T10:05:31;4.45;71.84
75164;HTU21D;63746;45.402;37.922;2023-02-24T10:08:15;4.52;71.60
75164;HTU21D;63746;45.402;37.922;2023-02-24T10:10:51;4.60;72.10
75164;HTU21D;63746;45.402;37.922;2023-02-24T10:13:41;4.65;71.90
75164;HTU21D;63746;45.402;37.922;2023-02-24T10:16:15;4.71;71.77
75164;HTU21D;63746;45.402;37.922;2023-02-24T10:19:02;4.84;71.72
75164;HTU21D;63746;45.402;37.922;2023-02-24T10:21:49;4.96;71.74
75164;HTU21D;63746;45.402;37.922;2023-02-24T10:24:50;5.01;70.81
75164;HTU21D;63746;45.402;37.922;2023-02-24T10:28:02;5.05;71.26
75164;HTU21D;63746;45.402;37.922;2023-02-24T10:33:41;5.20;70.93
75164;HTU21D;63746;45.402;37.922;2023-02-24T10:36:16;5.28;71.68
75164;HTU21D;63746;45.402;37.922;2023-02-24T10:38:44;5.35;71.38
75164;HTU21D;63746;45.402;37.922;2023-02-24T10:41:12;5.42;71.83
75164;HTU21D;63746;45.402;37.922;2023-02-24T10:43:38;5.49;71.10
75164;HTU21D;63746;45.402;37.922;2023-02-24T10:46:31;5.54;70.26
75164;HTU21D;63746;45.402;37.922;2023-02-24T10:49:02;5.62;71.45
75164;HTU21D;63746;45.402;37.922;2023-02-24T10:51:50;5.74;70.91
75164;HTU21D;63746;45.402;37.922;2023-02-24T10:54:26;5.78;70.91
75164;HTU21D;63746;45.402;37.922;2023-02-24T10:57:11;5.86;71.35
75164;HTU21D;63746;45.402;37.922;2023-02-24T10:59:58;5.92;69.84
75164;HTU21D;63746;45.402;37.922;2023-02-24T11:02:36;5.96;70.27
75164;HTU21D;63746;45.402;37.922;2023-02-24T11:05:24;5.97;71.19
75164;HTU21D;63746;45.402;37.922;2023-02-24T11:08:14;6.02;71.29
75164;HTU21D;63746;45.402;37.922;2023-02-24T11:11:33;6.06;69.75
75164;HTU21D;63746;45.402;37.922;2023-02-24T11:14:00;6.08;70.79
75164;HTU21D;63746;45.402;37.922;2023-02-24T11:16:49;6.09;67.84
75164;HTU21D;63746;45.402;37.922;2023-02-24T11:19:44;6.12;70.36
75164;HTU21D;63746;45.402;37.922;2023-02-24T11:22:15;6.14;71.08
75164;HTU21D;63746;45.402;37.922;2023-02-24T11:24:43;6.21;71.14
75164;HTU21D;63746;45.402;37.922;2023-02-24T11:27:11;6.24;70.88
75164;HTU21D;63746;45.402;37.922;2023-02-24T11:30:10;6.29;70.71
75164;HTU21D;63746;45.402;37.922;2023-02-24T11:32:46;6.33;70.48
75164;HTU21D;63746;45.402;37.922;2023-02-24T11:40:40;6.44;70.49
75164;HTU21D;63746;45.402;37.922;2023-02-24T11:43:16;6.51;70.58
75164;HTU21D;63746;45.402;37.922;2023-02-24T11:45:51;6.55;70.74
75164;HTU21D;63746;45.402;37.922;2023-02-24T11:48:25;6.64;71.02
75164;HTU21D;63746;45.402;37.922;2023-02-24T11:50:59;6.69;71.19
75164;HTU21D;63746;45.402;37.922;2023-02-24T11:53:55;6.72;70.20
75164;HTU21D;63746;45.402;37.922;2023-02-24T11:56:32;6.76;70.17
75164;HTU21D;63746;45.402;37.922;2023-02-24T12:01:40;6.85;70.75
75164;HTU21D;63746;45.402;37.922;2023-02-24T12:06:45;6.90;69.84
75164;HTU21D;63746;45.402;37.922;2023-02-24T12:09:18;6.91;70.64
75164;HTU21D;63746;45.402;37.922;2023-02-24T12:12:13;6.93;69.53
75164;HTU21D;63746;45.402;37.922;2023-02-24T12:14:52;6.96;70.34
75164;HTU21D;63746;45.402;37.922;2023-02-24T12:17:48;6.98;69.10
75164;HTU21D;63746;45.402;37.922;2023-02-24T12:22:55;7.03;70.31
75164;HTU21D;63746;45.402;37.922;2023-02-24T12:25:31;7.07;70.74
75164;HTU21D;63746;45.402;37.922;2023-02-24T12:28:15;7.08;69.28
75164;HTU21D;63746;45.402;37.922;2023-02-24T12:30:57;7.05;67.75
75164;HTU21D;63746;45.402;37.922;2023-02-24T12:36:19;6.96;68.51
75164;HTU21D;63746;45.402;37.922;2023-02-24T12:39:07;6.93;69.29
75164;HTU21D;63746;45.402;37.922;2023-02-24T12:45:00;6.96;68.81
75164;HTU21D;63746;45.402;37.922;2023-02-24T12:55:52;7.02;69.47
75164;HTU21D;63746;45.402;37.922;2023-02-24T12:58:29;7.03;70.26
75164;HTU21D;63746;45.402;37.922;2023-02-24T13:01:23;7.05;67.33
75164;HTU21D;63746;45.402;37.922;2023-02-24T13:04:13;7.04;69.00
75164;HTU21D;63746;45.402;37.922;2023-02-24T13:07:25;7.00;68.65
75164;HTU21D;63746;45.402;37.922;2023-02-24T13:10:15;6.98;68.51
75164;HTU21D;63746;45.402;37.922;2023-02-24T13:12:55;6.99;69.20
75164;HTU21D;63746;45.402;37.922;2023-02-24T13:15:26;6.99;69.00
75164;HTU21D;63746;45.402;37.922;2023-02-24T13:17:56;6.99;69.32
75164;HTU21D;63746;45.402;37.922;2023-02-24T13:20:40;7.00;67.68
75164;HTU21D;63746;45.402;37.922;2023-02-24T13:23:20;7.02;68.46
75164;HTU21D;63746;45.402;37.922;2023-02-24T13:25:54;7.01;69.41
75164;HTU21D;63746;45.402;37.922;2023-02-24T13:30:55;7.04;69.63
75164;HTU21D;63746;45.402;37.922;2023-02-24T13:33:26;7.01;69.81
75164;HTU21D;63746;45.402;37.922;2023-02-24T13:36:16;6.98;69.33
75164;HTU21D;63746;45.402;37.922;2023-02-24T13:39:02;6.96;69.81
75164;HTU21D;63746;45.402;37.922;2023-02-24T13:43:55;6.96;69.72
75164;HTU21D;63746;45.402;37.922;2023-02-24T13:46:23;6.94;69.52
75164;HTU21D;63746;45.402;37.922;2023-02-24T13:49:02;6.93;68.87
75164;HTU21D;63746;45.402;37.922;2023-02-24T13:57:40;6.82;69.28
75164;HTU21D;63746;45.402;37.922;2023-02-24T14:02:47;6.79;70.33
75164;HTU21D;63746;45.402;37.922;2023-02-24T14:05:24;6.78;70.45
75164;HTU21D;63746;45.402;37.922;2023-02-24T14:07:51;6.76;70.42
75164;HTU21D;63746;45.402;37.922;2023-02-24T14:10:30;6.72;70.27
75164;HTU21D;63746;45.402;37.922;2023-02-24T14:13:15;6.69;70.13
75164;HTU21D;63746;45.402;37.922;2023-02-24T14:15:44;6.65;70.45
75164;HTU21D;63746;45.402;37.922;2023-02-24T14:18:22;6.60;70.55
75164;HTU21D;63746;45.402;37.922;2023-02-24T14:20:49;6.57;70.63
75164;HTU21D;63746;45.402;37.922;2023-02-24T14:25:57;6.50;70.82
75164;HTU21D;63746;45.402;37.922;2023-02-24T14:28:30;6.46;70.77
75164;HTU21D;63746;45.402;37.922;2023-02-24T14:30:58;6.43;70.82
75164;HTU21D;63746;45.402;37.922;2023-02-24T14:33:44;6.39;70.46
75164;HTU21D;63746;45.402;37.922;2023-02-24T14:36:19;6.36;70.83
75164;HTU21D;63746;45.402;37.922;2023-02-24T14:41:27;6.27;71.05
75164;HTU21D;63746;45.402;37.922;2023-02-24T14:43:53;6.25;71.03
75164;HTU21D;63746;45.402;37.922;2023-02-24T14:46:21;6.22;71.17
75164;HTU21D;63746;45.402;37.922;2023-02-24T14:48:54;6.17;71.13
75164;HTU21D;63746;45.402;37.922;2023-02-24T14:51:28;6.16;71.11
75164;HTU21D;63746;45.402;37.922;2023-02-24T14:54:02;6.12;71.19
75164;HTU21D;63746;45.402;37.922;2023-02-24T14:56:31;6.08;71.15
75164;HTU21D;63746;45.402;37.922;2023-02-24T14:59:11;6.02;70.95
75164;HTU21D;63746;45.402;37.922;2023-02-24T15:01:50;5.97;71.01
75164;HTU21D;63746;45.402;37.922;2023-02-24T15:06:53;5.82;71.01
75164;HTU21D;63746;45.402;37.922;2023-02-24T15:09:22;5.77;71.06
75164;HTU21D;63746;45.402;37.922;2023-02-24T15:11:51;5.71;71.10
75164;HTU21D;63746;45.402;37.922;2023-02-24T15:14:21;5.65;71.12
75164;HTU21D;63746;45.402;37.922;2023-02-24T15:16:53;5.55;71.05
75164;HTU21D;63746;45.402;37.922;2023-02-24T15:19:26;5.47;71.00
75164;HTU21D;63746;45.402;37.922;2023-02-24T15:21:56;5.37;71.00
75164;HTU21D;63746;45.402;37.922;2023-02-24T15:24:32;5.31;71.04
75164;HTU21D;63746;45.402;37.922;2023-02-24T15:29:41;5.18;71.17
75164;HTU21D;63746;45.402;37.922;2023-02-24T15:32:18;5.15;71.20
75164;HTU21D;63746;45.402;37.922;2023-02-24T15:34:46;5.08;71.25
75164;HTU21D;63746;45.402;37.922;2023-02-24T15:39:48;5.00;70.70
75164;HTU21D;63746;45.402;37.922;2023-02-24T15:42:22;4.92;71.13
75164;HTU21D;63746;45.402;37.922;2023-02-24T15:44:57;4.84;71.20
75164;HTU21D;63746;45.402;37.922;2023-02-24T15:47:29;4.80;71.26
75164;HTU21D;63746;45.402;37.922;2023-02-24T15:49:57;4.76;71.32
75164;HTU21D;63746;45.402;37.922;2023-02-24T15:52:26;4.72;71.33
75164;HTU21D;63746;45.402;37.922;2023-02-24T15:54:54;4.69;71.34
75164;HTU21D;63746;45.402;37.922;2023-02-24T15:57:22;4.67;71.30
75164;HTU21D;63746;45.402;37.922;2023-02-24T15:59:49;4.64;71.26
75164;HTU21D;63746;45.402;37.922;2023-02-24T16:02:18;4.61;71.29
75164;HTU21D;63746;45.402;37.922;2023-02-24T16:04:45;4.59;71.29
75164;HTU21D;63746;45.402;37.922;2023-02-24T16:07:23;4.56;71.24
75164;HTU21D;63746;45.402;37.922;2023-02-24T16:09:52;4.51;71.29
75164;HTU21D;63746;45.402;37.922;2023-02-24T16:12:24;4.48;71.29
75164;HTU21D;63746;45.402;37.922;2023-02-24T16:14:54;4.43;71.22
75164;HTU21D;63746;45.402;37.922;2023-02-24T16:17:32;4.37;71.22
75164;HTU21D;63746;45.402;37.922;2023-02-24T16:20:00;4.32;71.26
75164;HTU21D;63746;45.402;37.922;2023-02-24T16:22:27;4.29;71.29
75164;HTU21D;63746;45.402;37.922;2023-02-24T16:24:53;4.26;71.29
75164;HTU21D;63746;45.402;37.922;2023-02-24T16:27:21;4.22;71.23
75164;HTU21D;63746;45.402;37.922;2023-02-24T16:29:48;4.17;71.23
75164;HTU21D;63746;45.402;37.922;2023-02-24T16:32:18;4.14;71.32
75164;HTU21D;63746;45.402;37.922;2023-02-24T16:34:46;4.12;71.38
75164;HTU21D;63746;45.402;37.922;2023-02-24T16:37:16;4.09;71.41
75164;HTU21D;63746;45.402;37.922;2023-02-24T16:39:43;4.04;71.28
75164;HTU21D;63746;45.402;37.922;2023-02-24T16:42:10;4.01;71.37
75164;HTU21D;63746;45.402;37.922;2023-02-24T16:44:36;3.97;71.39
75164;HTU21D;63746;45.402;37.922;2023-02-24T16:47:03;3.91;71.31
75164;HTU21D;63746;45.402;37.922;2023-02-24T16:49:31;3.85;71.35
75164;HTU21D;63746;45.402;37.922;2023-02-24T16:51:57;3.79;71.35
75164;HTU21D;63746;45.402;37.922;2023-02-24T16:54:23;3.75;71.34
75164;HTU21D;63746;45.402;37.922;2023-02-24T16:56:56;3.72;71.48
75164;HTU21D;63746;45.402;37.922;2023-02-24T16:59:23;3.69;71.18
75164;HTU21D;63746;45.402;37.922;2023-02-24T17:01:52;3.65;71.50
75164;HTU21D;63746;45.402;37.922;2023-02-24T17:04:18;3.62;71.60
75164;HTU21D;63746;45.402;37.922;2023-02-24T17:06:45;3.60;71.60
75164;HTU21D;63746;45.402;37.922;2023-02-24T17:09:12;3.57;71.58
75164;HTU21D;63746;45.402;37.922;2023-02-24T17:11:41;3.54;71.58
75164;HTU21D;63746;45.402;37.922;2023-02-24T17:14:18;3.53;71.58
75164;HTU21D;63746;45.402;37.922;2023-02-24T17:16:44;3.52;71.60
75164;HTU21D;63746;45.402;37.922;2023-02-24T17:19:10;3.48;71.59
75164;HTU21D;63746;45.402;37.922;2023-02-24T17:21:41;3.46;71.59
75164;HTU21D;63746;45.402;37.922;2023-02-24T17:24:13;3.45;71.59
75164;HTU21D;63746;45.402;37.922;2023-02-24T17:26:40;3.43;71.61
75164;HTU21D;63746;45.402;37.922;2023-02-24T17:29:06;3.42;71.64